Time;durP1;ratioP1;P1;durP2;ratioP2;P2;SDS_P1;SDS_P2;PMS_P1;PMS_P2;Temp;Humidity;BMP_temperature;BMP_pressure;BME280_temperature;BME280_humidity;BME280_pressure;Samples;Min_cycle;Max_cycle;Signal;HPM_P1;HPM_P2
2022/05/19 00:02:05;;;;;;;1999.90;999.90;;;13.20;99.90;;;;;;5045240;28;20085;-77
2022/05/19 00:04:32;;;;;;;1999.90;999.90;;;13.20;99.90;;;;;;5056374;28;20139;-77
2022/05/19 00:06:58;;;;;;;1999.90;999.90;;;13.30;99.90;;;;;;5072249;28;20051;-78
2022/05/19 00:09:24;;;;;;;1999.90;999.90;;;13.30;99.90;;;;;;5088064;28;20435;-77
2022/05/19 00:11:52;;;;;;;1999.90;999.90;;;13.30;99.90;;;;;;5075473;28;20118;-77
2022/05/19 00:14:18;;;;;;;1999.90;999.90;;;13.40;99.90;;;;;;5067180;28;20049;-77
2022/05/19 00:16:44;;;;;;;1999.90;999.90;;;13.40;99.90;;;;;;5036294;28;20408;-77
2022/05/19 00:19:11;;;;;;;1999.90;999.90;;;13.40;99.90;;;;;;5071735;28;20044;-77
2022/05/19 00:21:37;;;;;;;1999.90;999.90;;;13.50;99.90;;;;;;5066572;28;20127;-77
2022/05/19 00:24:03;;;;;;;1999.90;999.90;;;13.50;99.90;;;;;;5050354;28;20135;-78
2022/05/19 00:26:29;;;;;;;1999.90;999.90;;;13.50;99.90;;;;;;5062463;28;20053;-77
2022/05/19 00:28:54;;;;;;;1999.90;999.90;;;13.50;99.90;;;;;;5062651;28;20131;-77
2022/05/19 00:31:20;;;;;;;1999.90;999.90;;;13.60;99.90;;;;;;5051269;28;20127;-77
2022/05/19 00:33:46;;;;;;;1999.90;999.90;;;13.60;99.90;;;;;;5070396;28;20500;-77
2022/05/19 00:36:15;;;;;;;1999.90;999.90;;;13.60;99.90;;;;;;5056115;28;20051;-77
2022/05/19 00:38:41;;;;;;;1999.90;999.90;;;13.60;99.90;;;;;;5083428;28;20040;-77
2022/05/19 00:41:08;;;;;;;1999.90;999.90;;;13.60;99.90;;;;;;5055390;28;20047;-77
2022/05/19 00:43:37;;;;;;;1999.90;999.90;;;13.60;99.90;;;;;;5071870;28;20540;-77
2022/05/19 00:46:13;;;;;;;1999.90;999.90;;;13.60;99.90;;;;;;5072015;28;20040;-77
2022/05/19 00:49:20;;;;;;;1999.90;999.90;;;13.50;99.90;;;;;;5052776;28;20143;-77
2022/05/19 00:52:02;;;;;;;1999.90;999.90;;;13.50;99.90;;;;;;5022708;28;20075;-77
2022/05/19 00:54:33;;;;;;;1999.90;999.90;;;13.50;99.90;;;;;;5090850;28;20130;-77
2022/05/19 00:57:11;;;;;;;1999.90;999.90;;;13.50;99.90;;;;;;5053045;28;20071;-77
2022/05/19 00:59:42;;;;;;;1999.90;999.90;;;13.50;99.90;;;;;;5071694;28;20089;-77
2022/05/19 01:02:11;;;;;;;1999.90;999.90;;;13.50;99.90;;;;;;5068246;28;20041;-77
2022/05/19 01:04:55;;;;;;;1999.90;999.90;;;13.50;99.90;;;;;;5047874;28;20043;-77
2022/05/19 01:07:27;;;;;;;1999.90;999.90;;;13.50;99.90;;;;;;5070168;28;20047;-77
2022/05/19 01:09:56;;;;;;;1999.90;999.90;;;13.50;99.90;;;;;;5052855;28;20436;-77
2022/05/19 01:12:22;;;;;;;1999.90;999.90;;;13.50;99.90;;;;;;5072872;28;20109;-77
2022/05/19 01:14:47;;;;;;;1999.90;999.90;;;13.50;99.90;;;;;;5052878;28;20043;-77
2022/05/19 01:17:13;;;;;;;1999.90;999.90;;;13.50;99.90;;;;;;5071507;28;20424;-77
2022/05/19 01:19:48;;;;;;;1999.90;999.90;;;13.50;99.90;;;;;;5053594;28;20040;-77
2022/05/19 01:22:48;;;;;;;1999.90;999.90;;;13.50;99.90;;;;;;5046552;28;20442;-77
2022/05/19 01:25:38;;;;;;;1999.90;999.90;;;13.60;99.90;;;;;;5037193;28;20048;-77
2022/05/19 01:28:05;;;;;;;1999.90;999.90;;;13.50;99.90;;;;;;5056328;28;20044;-77
2022/05/19 01:30:31;;;;;;;1999.90;999.90;;;13.50;99.90;;;;;;5040202;28;20075;-77
2022/05/19 01:32:57;;;;;;;1999.90;999.90;;;13.50;99.90;;;;;;5053013;28;20173;-77
2022/05/19 01:35:22;;;;;;;1999.90;999.90;;;13.50;99.90;;;;;;5066417;28;20127;-77
2022/05/19 01:37:49;;;;;;;1999.90;999.90;;;13.50;99.90;;;;;;5051646;28;20082;-77
2022/05/19 01:40:14;;;;;;;1999.90;999.90;;;13.50;99.90;;;;;;5067224;28;20582;-77
2022/05/19 01:42:52;;;;;;;1999.90;999.90;;;13.60;99.90;;;;;;5061966;28;20043;-77
2022/05/19 01:45:30;;;;;;;1999.90;999.90;;;13.60;99.90;;;;;;5057024;28;20119;-77
2022/05/19 01:48:01;;;;;;;1999.90;999.90;;;13.60;99.90;;;;;;5053871;28;20133;-77
2022/05/19 01:50:35;;;;;;;1999.90;999.90;;;13.60;99.90;;;;;;5052945;28;20398;-77
2022/05/19 01:53:30;;;;;;;1999.90;999.90;;;13.60;99.90;;;;;;5042101;28;20044;-78
2022/05/19 01:56:24;;;;;;;1999.90;999.90;;;13.70;99.90;;;;;;5068461;28;20090;-77
2022/05/19 01:59:07;;;;;;;1999.90;999.90;;;13.70;99.90;;;;;;5056077;28;20137;-78
2022/05/19 02:01:33;;;;;;;;;;;13.70;99.90;;;;;;5060905;28;20136;-78
2022/05/19 02:04:03;;;;;;;1999.90;999.90;;;13.70;99.90;;;;;;5055723;28;20030;-78
2022/05/19 02:06:32;;;;;;;1999.90;999.90;;;13.80;99.90;;;;;;5042909;28;20056;-78
2022/05/19 02:09:12;;;;;;;1999.90;999.90;;;13.80;99.90;;;;;;5061908;28;20116;-78
2022/05/19 02:11:45;;;;;;;1999.90;999.90;;;13.80;99.90;;;;;;5086428;28;20164;-78
2022/05/19 02:14:16;;;;;;;;;;;13.90;99.90;;;;;;5076339;28;20047;-77
2022/05/19 02:16:43;;;;;;;1999.90;999.90;;;13.90;99.90;;;;;;5064558;28;20003;-77
2022/05/19 02:19:11;;;;;;;1999.90;999.90;;;13.80;99.90;;;;;;5066848;28;20052;-78
2022/05/19 02:21:38;;;;;;;1999.90;999.90;;;13.80;99.90;;;;;;5067472;28;20044;-77
2022/05/19 02:24:04;;;;;;;1999.90;999.90;;;13.80;99.90;;;;;;5039343;28;20052;-77
2022/05/19 02:26:35;;;;;;;1999.90;999.90;;;13.80;99.90;;;;;;5049597;28;20051;-77
2022/05/19 02:29:08;;;;;;;1999.90;999.90;;;13.80;99.90;;;;;;5041659;28;20120;-78
2022/05/19 02:31:34;;;;;;;1999.90;999.90;;;13.80;99.90;;;;;;5050061;28;20072;-77
2022/05/19 02:34:00;;;;;;;1999.90;999.90;;;13.70;99.90;;;;;;5030045;28;20477;-78
2022/05/19 02:36:26;;;;;;;1999.90;999.90;;;13.80;99.90;;;;;;5013788;28;20123;-78
2022/05/19 02:38:52;;;;;;;1999.90;999.90;;;13.90;99.90;;;;;;5014162;28;20079;-78
2022/05/19 02:41:18;;;;;;;1999.90;999.90;;;13.80;99.90;;;;;;5017493;28;20438;-78
2022/05/19 02:43:44;;;;;;;1999.90;999.90;;;13.80;99.90;;;;;;5020669;28;20043;-78
2022/05/19 02:46:09;;;;;;;1999.90;999.90;;;13.90;99.90;;;;;;5033987;28;20101;-78
2022/05/19 02:48:35;;;;;;;1999.90;999.90;;;13.90;99.90;;;;;;5033608;28;20049;-78
2022/05/19 02:51:01;;;;;;;1999.90;999.90;;;13.90;99.90;;;;;;5030132;28;20043;-78
2022/05/19 02:53:27;;;;;;;1999.90;999.90;;;13.90;99.90;;;;;;5046373;28;20040;-78
2022/05/19 02:55:52;;;;;;;1999.90;999.90;;;14.00;99.90;;;;;;5050161;28;20093;-78
2022/05/19 02:58:18;;;;;;;1999.90;999.90;;;14.10;99.90;;;;;;5030218;28;20049;-78
2022/05/19 03:00:47;;;;;;;1999.90;999.90;;;14.00;99.90;;;;;;5040974;28;20052;-78
2022/05/19 03:03:13;;;;;;;1999.90;999.90;;;14.10;99.90;;;;;;5040504;28;20045;-78
2022/05/19 03:05:39;;;;;;;1999.90;999.90;;;14.20;99.90;;;;;;5058247;28;20040;-78
2022/05/19 03:08:07;;;;;;;1999.90;999.90;;;14.20;99.90;;;;;;5039268;28;20067;-78
2022/05/19 03:10:35;;;;;;;1999.90;999.90;;;14.30;99.90;;;;;;5050489;28;20442;-78
2022/05/19 03:13:01;;;;;;;1999.90;999.90;;;14.30;99.90;;;;;;5050992;28;20048;-78
2022/05/19 03:15:27;;;;;;;1999.90;999.90;;;14.40;99.90;;;;;;5037076;28;20041;-77
2022/05/19 03:17:53;;;;;;;1999.90;999.90;;;14.40;99.90;;;;;;5046892;28;20041;-77
2022/05/19 03:20:18;;;;;;;1999.90;999.90;;;14.40;99.90;;;;;;5052862;28;20079;-78
2022/05/19 03:22:44;;;;;;;1999.90;999.90;;;14.50;99.90;;;;;;5049789;28;20064;-78
2022/05/19 03:25:11;;;;;;;1999.90;999.90;;;14.50;99.90;;;;;;5049611;28;20163;-77
2022/05/19 03:27:37;;;;;;;1999.90;999.90;;;14.50;99.90;;;;;;5051052;28;20048;-78
2022/05/19 03:30:06;;;;;;;1999.90;999.90;;;14.60;99.90;;;;;;5054049;28;20119;-78
2022/05/19 03:32:31;;;;;;;1999.90;999.90;;;14.60;99.90;;;;;;5032328;28;20072;-77
2022/05/19 03:34:57;;;;;;;1999.90;999.90;;;14.70;99.90;;;;;;5064598;28;20075;-78
2022/05/19 03:37:23;;;;;;;1999.90;999.90;;;14.70;99.90;;;;;;5073602;28;20083;-77
2022/05/19 03:39:48;;;;;;;1999.90;999.90;;;14.70;99.90;;;;;;5055070;28;20541;-77
2022/05/19 03:42:14;;;;;;;1999.90;999.90;;;14.70;99.90;;;;;;5033127;28;20067;-78
2022/05/19 03:44:40;;;;;;;1999.90;999.90;;;14.80;99.90;;;;;;5052612;28;20128;-77
2022/05/19 03:47:06;;;;;;;1999.90;999.90;;;14.80;99.90;;;;;;5037543;28;20559;-77
2022/05/19 03:49:32;;;;;;;1999.90;999.90;;;14.90;99.90;;;;;;5034476;28;20441;-78
2022/05/19 03:51:58;;;;;;;1999.90;999.90;;;14.90;99.90;;;;;;5033775;28;20502;-77
2022/05/19 03:54:24;;;;;;;1999.90;999.90;;;15.00;99.90;;;;;;5037009;28;20078;-78
2022/05/19 03:56:49;;;;;;;1999.90;999.90;;;15.00;99.90;;;;;;5038131;28;20048;-77
2022/05/19 03:59:15;;;;;;;1999.90;999.90;;;15.10;99.90;;;;;;5031996;28;20041;-77
2022/05/19 04:01:40;;;;;;;1999.90;999.90;;;15.20;99.90;;;;;;5029892;28;20036;-79
2022/05/19 04:04:07;;;;;;;1999.90;999.90;;;15.20;99.90;;;;;;5032226;28;20094;-78
2022/05/19 04:06:34;;;;;;;1999.90;999.90;;;15.30;99.90;;;;;;5050172;28;20576;-77
2022/05/19 04:09:00;;;;;;;1999.90;999.90;;;15.30;99.90;;;;;;5053273;28;20090;-77
2022/05/19 04:11:26;;;;;;;1999.90;999.90;;;15.40;99.90;;;;;;5053103;28;20540;-77
2022/05/19 04:13:52;;;;;;;1999.90;999.90;;;15.40;99.90;;;;;;5048179;28;20067;-78
2022/05/19 04:16:18;;;;;;;1999.90;999.90;;;15.40;99.90;;;;;;5058365;28;20041;-79
2022/05/19 04:18:44;;;;;;;1999.90;999.90;;;15.50;99.90;;;;;;5035476;28;20453;-79
2022/05/19 04:21:10;;;;;;;1999.90;999.90;;;15.50;99.90;;;;;;5053397;28;20506;-77
2022/05/19 04:23:35;;;;;;;1999.90;999.90;;;15.60;99.90;;;;;;5039040;28;20048;-77
2022/05/19 04:26:01;;;;;;;1999.90;999.90;;;15.60;99.90;;;;;;5066867;28;20059;-77
2022/05/19 04:28:26;;;;;;;1999.90;999.90;;;15.70;99.90;;;;;;5048060;28;20100;-79
2022/05/19 04:30:52;;;;;;;1999.90;999.90;;;15.80;99.90;;;;;;5038243;28;20040;-76
2022/05/19 04:33:18;;;;;;;1999.90;999.90;;;15.90;99.90;;;;;;5075673;28;20493;-77
2022/05/19 04:35:44;;;;;;;1999.90;999.90;;;16.00;99.90;;;;;;5079456;28;20052;-77
2022/05/19 04:38:13;;;;;;;1999.90;999.90;;;16.10;99.90;;;;;;5069097;28;20386;-78
2022/05/19 04:40:41;;;;;;;1999.90;999.90;;;16.10;99.90;;;;;;5040683;28;20127;-77
2022/05/19 04:43:08;;;;;;;1999.90;999.90;;;16.30;99.90;;;;;;5068992;28;20052;-77
2022/05/19 04:45:34;;;;;;;1999.90;999.90;;;16.40;99.90;;;;;;5058773;28;20493;-76
2022/05/19 04:48:00;;;;;;;1999.90;999.90;;;16.50;99.90;;;;;;5053269;28;20051;-78
2022/05/19 04:50:27;;;;;;;1999.90;999.90;;;16.60;99.90;;;;;;5066449;28;20044;-77
2022/05/19 04:52:52;;;;;;;1999.90;999.90;;;16.70;99.90;;;;;;5036085;28;20386;-77
2022/05/19 04:55:18;;;;;;;1999.90;999.90;;;16.70;99.90;;;;;;5068987;28;20047;-77
2022/05/19 04:57:44;;;;;;;1999.90;999.90;;;16.80;99.90;;;;;;5052066;28;20051;-78
2022/05/19 05:00:13;;;;;;;1999.90;999.90;;;16.90;99.90;;;;;;5063630;28;20465;-77
2022/05/19 05:02:39;;;;;;;1999.90;999.90;;;16.90;99.90;;;;;;5076460;28;20083;-78
2022/05/19 05:05:06;;;;;;;1999.90;999.90;;;16.90;99.90;;;;;;5049410;28;20048;-78
2022/05/19 05:07:32;;;;;;;1999.90;999.90;;;16.90;99.90;;;;;;5062287;28;20366;-77
2022/05/19 05:09:58;;;;;;;1999.90;999.90;;;17.10;99.90;;;;;;5052455;28;20044;-78
2022/05/19 05:12:23;;;;;;;1999.90;999.90;;;17.10;99.90;;;;;;5060367;28;20431;-78
2022/05/19 05:14:49;;;;;;;1999.90;999.90;;;17.20;99.90;;;;;;5043836;28;20087;-77
2022/05/19 05:17:15;;;;;;;1999.90;999.90;;;17.30;99.90;;;;;;5033727;28;20053;-78
2022/05/19 05:19:41;;;;;;;1999.90;999.90;;;17.40;99.90;;;;;;5045168;28;20072;-78
2022/05/19 05:22:06;;;;;;;1999.90;999.90;;;17.40;99.90;;;;;;5065924;28;20524;-77
2022/05/19 05:24:32;;;;;;;1999.90;999.90;;;17.40;99.90;;;;;;5050204;28;20048;-77
2022/05/19 05:26:58;;;;;;;1999.90;999.90;;;17.50;99.90;;;;;;5070704;28;20054;-77
2022/05/19 05:29:23;;;;;;;1999.90;999.90;;;17.50;99.90;;;;;;5077139;28;20036;-78
2022/05/19 05:31:49;;;;;;;1999.90;999.90;;;17.60;99.90;;;;;;5064321;28;20044;-78
2022/05/19 05:34:15;;;;;;;1999.90;999.90;;;17.60;99.90;;;;;;5049568;28;20082;-77
2022/05/19 05:36:41;;;;;;;1999.90;999.90;;;17.70;99.90;;;;;;5061980;28;20082;-77
2022/05/19 05:39:06;;;;;;;1999.90;999.90;;;17.80;99.90;;;;;;5067686;28;20072;-77
2022/05/19 05:41:32;;;;;;;1999.90;999.90;;;17.90;99.90;;;;;;5086792;28;20043;-79
2022/05/19 05:43:58;;;;;;;1999.90;999.90;;;18.20;99.90;;;;;;5070821;28;20053;-78
2022/05/19 05:46:23;;;;;;;1999.90;999.90;;;18.40;99.90;;;;;;5034934;28;20037;-77
2022/05/19 05:48:49;;;;;;;1999.90;999.90;;;18.50;99.90;;;;;;5052327;28;20131;-77
2022/05/19 05:51:16;;;;;;;1999.90;999.90;;;18.50;99.90;;;;;;5049472;28;21560;-78
2022/05/19 05:53:43;;;;;;;1999.90;999.90;;;18.50;99.90;;;;;;5060969;28;20076;-78
2022/05/19 05:56:11;;;;;;;1999.90;999.90;;;18.60;99.90;;;;;;5039832;28;20570;-78
2022/05/19 05:58:37;;;;;;;1999.90;999.90;;;18.70;99.90;;;;;;5061233;28;20068;-76
2022/05/19 06:01:05;;;;;;;1999.90;999.90;;;18.60;99.90;;;;;;5067351;28;20037;-77
2022/05/19 06:03:32;;;;;;;1999.90;999.90;;;18.70;99.90;;;;;;5052753;28;20047;-77
2022/05/19 06:05:58;;;;;;;1999.90;999.90;;;18.70;99.90;;;;;;5064127;28;20131;-76
2022/05/19 06:08:24;;;;;;;1999.90;999.90;;;18.70;99.90;;;;;;5042079;28;20040;-78
2022/05/19 06:10:49;;;;;;;1999.90;999.90;;;18.70;99.90;;;;;;5046141;28;20494;-77
2022/05/19 06:13:15;;;;;;;1999.90;999.90;;;18.80;99.90;;;;;;5044546;28;20502;-77
2022/05/19 06:15:41;;;;;;;1999.90;999.90;;;18.90;99.90;;;;;;5065285;28;20122;-77
2022/05/19 06:18:06;;;;;;;1999.90;999.90;;;18.90;99.90;;;;;;5062783;28;20482;-77
2022/05/19 06:20:32;;;;;;;1999.90;999.90;;;18.90;99.90;;;;;;5038832;28;20040;-78
2022/05/19 06:22:59;;;;;;;1999.90;999.90;;;18.90;99.90;;;;;;5067936;28;20032;-78
2022/05/19 06:25:25;;;;;;;1999.90;999.90;;;18.90;99.90;;;;;;5070450;28;20554;-77
2022/05/19 06:27:51;;;;;;;1999.90;999.90;;;18.90;99.90;;;;;;5069025;28;20057;-76
2022/05/19 06:30:18;;;;;;;1999.90;999.90;;;18.90;99.90;;;;;;5053843;28;20501;-77
2022/05/19 06:32:44;;;;;;;1999.90;999.90;;;18.90;99.90;;;;;;5053742;28;20401;-78
2022/05/19 06:35:13;;;;;;;1999.90;999.90;;;18.90;99.90;;;;;;5069397;28;20417;-77
2022/05/19 06:37:39;;;;;;;1999.90;999.90;;;18.80;99.90;;;;;;5053723;28;20039;-77
2022/05/19 06:40:06;;;;;;;1999.90;999.90;;;18.80;99.90;;;;;;5048046;28;20041;-77
2022/05/19 06:42:31;;;;;;;1999.90;999.90;;;18.70;99.90;;;;;;5069520;28;20541;-78
2022/05/19 06:44:57;;;;;;;1999.90;999.90;;;18.70;99.90;;;;;;5063244;28;20040;-77
2022/05/19 06:47:23;;;;;;;1999.90;999.90;;;18.70;99.90;;;;;;5075154;28;20039;-78
2022/05/19 06:49:55;;;;;;;1999.90;999.90;;;18.60;99.90;;;;;;5058133;28;20054;-79
2022/05/19 06:52:30;;;;;;;1999.90;999.90;;;18.50;99.90;;;;;;5057887;28;20374;-79
2022/05/19 06:54:58;;;;;;;1999.90;999.90;;;18.40;99.90;;;;;;5074004;28;20044;-78
2022/05/19 06:57:25;;;;;;;1999.90;999.90;;;18.30;99.90;;;;;;5057166;28;20531;-79
2022/05/19 06:59:52;;;;;;;1999.90;999.90;;;18.30;99.90;;;;;;5058112;28;20467;-79
2022/05/19 07:02:19;;;;;;;1999.90;999.90;;;18.30;99.90;;;;;;5058038;28;20044;-78
2022/05/19 07:04:46;;;;;;;1999.90;999.90;;;18.40;99.90;;;;;;5053869;28;20095;-78
2022/05/19 07:07:12;;;;;;;1999.90;999.90;;;18.50;99.90;;;;;;5062338;28;20044;-79
2022/05/19 07:09:38;;;;;;;1999.90;999.90;;;18.50;99.90;;;;;;5072037;28;20455;-77
2022/05/19 07:12:06;;;;;;;1999.90;999.90;;;18.70;99.90;;;;;;5052919;28;20049;-78
2022/05/19 07:14:32;;;;;;;1999.90;999.90;;;18.80;99.90;;;;;;5053901;28;20055;-78
2022/05/19 07:16:57;;;;;;;1999.90;999.90;;;18.70;99.90;;;;;;5037989;28;20045;-79
2022/05/19 07:22:14;;;;;;;1999.90;999.90;;;18.70;99.90;;;;;;5069009;28;20044;-78
2022/05/19 07:24:39;;;;;;;1999.90;999.90;;;18.80;99.90;;;;;;5036962;28;20418;-78
2022/05/19 07:27:05;;;;;;;1999.90;999.90;;;18.70;99.90;;;;;;5063006;28;20294;-79
2022/05/19 07:29:31;;;;;;;1999.90;999.90;;;18.60;99.90;;;;;;5053892;28;20043;-78
2022/05/19 07:32:00;;;;;;;1999.90;999.90;;;18.70;99.90;;;;;;5058930;28;20044;-79
2022/05/19 07:34:28;;;;;;;1999.90;999.90;;;18.70;99.90;;;;;;5051674;28;20033;-79
2022/05/19 07:36:55;;;;;;;1999.90;999.90;;;18.70;99.90;;;;;;5057189;28;20408;-79
2022/05/19 07:39:22;;;;;;;1999.90;999.90;;;18.80;99.90;;;;;;5057273;28;20046;-78
2022/05/19 07:41:48;;;;;;;1999.90;999.90;;;18.80;99.90;;;;;;5057105;28;20044;-79
2022/05/19 07:44:14;;;;;;;1999.90;999.90;;;18.80;99.90;;;;;;5047691;28;20147;-78
2022/05/19 07:46:40;;;;;;;1999.90;999.90;;;18.90;99.90;;;;;;5054388;28;20036;-79
2022/05/19 07:49:07;;;;;;;1999.90;999.90;;;18.90;99.90;;;;;;5052377;28;20414;-79
2022/05/19 07:51:36;;;;;;;1999.90;999.90;;;18.90;99.90;;;;;;5054351;28;20147;-79
2022/05/19 07:54:14;;;;;;;1999.90;999.90;;;19.00;99.90;;;;;;5057184;28;20044;-79
2022/05/19 07:56:41;;;;;;;1999.90;999.90;;;19.10;99.90;;;;;;5057588;28;20047;-79
2022/05/19 07:59:08;;;;;;;1999.90;999.90;;;19.20;99.90;;;;;;5074052;28;20044;-79
2022/05/19 08:01:34;;;;;;;1999.90;999.90;;;19.30;99.90;;;;;;5044034;28;20138;-79
2022/05/19 08:04:00;;;;;;;1999.90;999.90;;;19.40;99.90;;;;;;5057009;28;20158;-79
2022/05/19 08:06:28;;;;;;;1999.90;999.90;;;19.40;99.90;;;;;;5073683;28;20076;-79
2022/05/19 08:08:55;;;;;;;1999.90;999.90;;;19.60;99.90;;;;;;5066943;28;20054;-78
2022/05/19 08:11:21;;;;;;;1999.90;999.90;;;19.60;99.90;;;;;;5055781;28;20134;-78
2022/05/19 08:16:30;;;;;;;1999.90;999.90;;;19.50;99.90;;;;;;5057302;28;20051;-79
2022/05/19 08:18:56;;;;;;;1999.90;999.90;;;19.40;99.90;;;;;;5053950;28;20044;-78
2022/05/19 08:21:22;;;;;;;1999.90;999.90;;;19.40;99.90;;;;;;5070772;28;20044;-79
2022/05/19 08:23:50;;;;;;;1999.90;999.90;;;19.40;99.90;;;;;;5057100;28;20093;-78
2022/05/19 08:26:17;;;;;;;1999.90;999.90;;;19.30;99.90;;;;;;5073093;28;20040;-78
2022/05/19 08:28:44;;;;;;;1999.90;999.90;;;19.20;99.90;;;;;;5043014;28;20033;-79
2022/05/19 08:31:13;;;;;;;1999.90;999.90;;;19.20;99.90;;;;;;5052656;28;20127;-79
2022/05/19 08:33:41;;;;;;;1999.90;999.90;;;19.20;99.90;;;;;;5036905;28;20124;-79
2022/05/19 08:36:08;;;;;;;1999.90;999.90;;;19.30;99.90;;;;;;5026505;28;20521;-78
2022/05/19 08:38:34;;;;;;;1999.90;999.90;;;19.50;99.90;;;;;;5020717;28;20036;-79
2022/05/19 08:41:05;;;;;;;1999.90;999.90;;;19.60;99.90;;;;;;5056400;28;20051;-79
2022/05/19 08:43:44;;;;;;;1999.90;999.90;;;19.70;99.90;;;;;;5053661;28;20428;-79
2022/05/19 08:46:22;;;;;;;1999.90;999.90;;;20.00;99.90;;;;;;5033156;28;20111;-79
2022/05/19 08:48:53;;;;;;;1999.90;999.90;;;20.30;99.90;;;;;;5017030;28;20045;-79
2022/05/19 08:51:25;;;;;;;1999.90;999.90;;;20.70;99.90;;;;;;5017106;28;20045;-79
2022/05/19 08:53:54;;;;;;;1999.90;999.90;;;20.90;99.90;;;;;;5043278;28;20131;-79
2022/05/19 08:56:25;;;;;;;1999.90;999.90;;;21.10;99.90;;;;;;5033772;28;20127;-77
2022/05/19 08:59:14;;;;;;;1999.90;999.90;;;21.40;99.90;;;;;;5033835;28;20037;-79
2022/05/19 09:01:44;;;;;;;1999.90;999.90;;;21.60;99.90;;;;;;5016765;28;20041;-78
2022/05/19 09:04:10;;;;;;;1999.90;999.90;;;21.90;99.90;;;;;;5035644;28;20143;-79
2022/05/19 09:11:03;;;;;;;1999.90;999.90;;;22.50;99.90;;;;;;5052860;28;20071;-79
2022/05/19 09:13:41;;;;;;;1999.90;999.90;;;22.30;99.90;;;;;;4947606;28;20055;-79
2022/05/19 09:16:20;;;;;;;1999.90;999.90;;;22.40;99.90;;;;;;4949917;28;20039;-79
2022/05/19 09:18:51;;;;;;;1999.90;999.90;;;22.40;99.90;;;;;;5014440;28;20127;-79
2022/05/19 09:21:17;;;;;;;1999.90;999.90;;;22.60;99.90;;;;;;5044017;28;20432;-78
2022/05/19 09:23:43;;;;;;;1999.90;999.90;;;22.80;99.90;;;;;;5022953;28;20082;-79
2022/05/19 09:26:39;;;;;;;1999.90;999.90;;;23.10;99.90;;;;;;5045341;28;20048;-79
2022/05/19 09:29:08;;;;;;;1999.90;999.90;;;23.40;99.90;;;;;;5046570;28;20140;-79
2022/05/19 09:31:55;;;;;;;1999.90;999.90;;;23.70;99.90;;;;;;5048757;28;20047;-79
2022/05/19 09:34:27;;;;;;;1999.90;999.90;;;23.90;99.90;;;;;;5031329;28;20593;-78
2022/05/19 09:37:09;;;;;;;1999.90;999.90;;;24.00;99.90;;;;;;5048646;28;20775;-79
2022/05/19 09:39:47;;;;;;;1999.90;999.90;;;24.10;99.90;;;;;;5029717;28;20068;-79
2022/05/19 09:42:18;;;;;;;1999.90;999.90;;;23.90;99.90;;;;;;5025948;28;20048;-78
2022/05/19 09:44:50;;;;;;;1999.90;999.90;;;23.80;99.90;;;;;;5024197;28;20045;-78
2022/05/19 09:47:16;;;;;;;;;;;23.90;99.90;;;;;;5053577;28;20047;-79
2022/05/19 09:49:51;;;;;;;1999.90;999.90;;;24.20;99.90;;;;;;5042846;28;19963;-78
2022/05/19 09:52:23;;;;;;;1999.90;999.90;;;24.30;99.90;;;;;;5034399;28;20047;-79
2022/05/19 09:55:04;;;;;;;1999.90;999.90;;;24.20;99.90;;;;;;5068514;28;20502;-79
2022/05/19 09:57:51;;;;;;;1999.90;999.90;;;24.00;99.90;;;;;;5024053;28;20309;-79
2022/05/19 10:00:37;;;;;;;1999.90;999.90;;;23.90;99.90;;;;;;5042643;28;20402;-78
2022/05/19 10:03:09;;;;;;;1999.90;999.90;;;23.80;99.90;;;;;;5026623;28;20036;-78
2022/05/19 10:05:46;;;;;;;1999.90;999.90;;;23.80;99.90;;;;;;5058187;28;20115;-77
2022/05/19 10:08:17;;;;;;;1999.90;999.90;;;23.80;99.90;;;;;;5043093;28;20045;-78
2022/05/19 10:10:48;;;;;;;1999.90;999.90;;;23.90;99.90;;;;;;5040083;28;20041;-78
2022/05/19 10:13:16;;;;;;;1999.90;999.90;;;24.20;99.90;;;;;;5062624;28;20440;-78
2022/05/19 10:16:07;;;;;;;1999.90;999.90;;;24.90;99.90;;;;;;5052553;28;20055;-78
2022/05/19 10:18:45;;;;;;;1999.90;999.90;;;25.20;99.90;;;;;;5055251;28;20413;-77
2022/05/19 10:21:32;;;;;;;1999.90;999.90;;;25.20;99.90;;;;;;5025093;28;20133;-79
2022/05/19 10:24:12;;;;;;;1999.90;999.90;;;25.50;99.90;;;;;;5049721;28;20053;-78
2022/05/19 10:33:54;;;;;;;1999.90;999.90;;;26.00;99.90;;;;;;5029810;28;20055;-78
2022/05/19 10:36:47;;;;;;;1999.90;999.90;;;25.70;99.90;;;;;;5028440;28;20409;-79
2022/05/19 10:39:29;;;;;;;1999.90;999.90;;;25.50;99.90;;;;;;5039705;28;20045;-77
2022/05/19 10:41:58;;;;;;;;;;;25.40;99.90;;;;;;5031137;28;20498;-78
2022/05/19 10:44:53;;;;;;;1999.90;999.90;;;25.30;99.90;;;;;;5035953;28;19924;-79
2022/05/19 10:47:37;;;;;;;1999.90;999.90;;;25.30;99.90;;;;;;5027970;28;20041;-77
2022/05/19 10:50:09;;;;;;;1999.90;999.90;;;25.50;99.90;;;;;;5022720;28;20062;-76
2022/05/19 10:52:53;;;;;;;1999.90;999.90;;;26.00;99.90;;;;;;5051322;28;20090;-77
2022/05/19 10:55:25;;;;;;;1999.90;999.90;;;26.50;99.90;;;;;;5048188;28;20056;-77
2022/05/19 10:58:15;;;;;;;1999.90;999.90;;;26.90;99.90;;;;;;5032520;28;20043;-77
2022/05/19 11:01:03;;;;;;;1999.90;999.90;;;27.10;99.90;;;;;;5028347;28;20070;-77
2022/05/19 11:04:00;;;;;;;1999.90;999.90;;;27.10;99.90;;;;;;5049285;28;20408;-77
2022/05/19 11:06:40;;;;;;;1999.90;999.90;;;27.20;99.90;;;;;;5045448;28;20060;-76
2022/05/19 11:09:43;;;;;;;1999.90;999.90;;;27.40;99.60;;;;;;5032918;28;20033;-78
2022/05/19 11:12:24;;;;;;;1999.90;999.90;;;27.70;99.90;;;;;;5035600;28;20037;-78
2022/05/19 11:15:03;;;;;;;1999.90;999.90;;;27.80;99.90;;;;;;5046577;28;20067;-78
2022/05/19 11:17:56;;;;;;;1999.90;999.90;;;27.80;99.90;;;;;;5037618;28;20047;-77
2022/05/19 11:20:25;;;;;;;;;;;27.80;98.00;;;;;;5048409;28;20044;-76
2022/05/19 11:22:55;;;;;;;1999.90;999.90;;;27.70;98.00;;;;;;5067823;28;19916;-77
2022/05/19 11:28:36;;;;;;;1999.90;999.90;;;27.30;96.10;;;;;;5054999;28;20048;-77
2022/05/19 11:31:17;;;;;;;1999.90;999.90;;;27.30;97.90;;;;;;5043528;28;20044;-77
2022/05/19 11:33:49;;;;;;;1999.90;999.90;;;27.20;95.50;;;;;;5074191;28;20040;-76
2022/05/19 11:36:43;;;;;;;1999.90;999.90;;;26.90;95.90;;;;;;5064603;28;20099;-77
2022/05/19 11:39:20;;;;;;;1999.90;999.90;;;26.60;95.80;;;;;;5058513;28;20043;-78
2022/05/19 11:41:47;;;;;;;1999.90;999.90;;;26.30;96.10;;;;;;5052049;28;20043;-78
2022/05/19 11:44:34;;;;;;;1999.90;999.90;;;26.50;98.50;;;;;;5068370;28;20044;-77
2022/05/19 11:47:12;;;;;;;1999.90;999.90;;;26.90;97.60;;;;;;5052621;28;20036;-76
2022/05/19 11:55:47;;;;;;;1999.90;999.90;;;26.70;95.30;;;;;;5066370;28;20055;-77
2022/05/19 11:58:19;;;;;;;1999.90;999.90;;;26.20;95.50;;;;;;5062575;28;20416;-78
2022/05/19 12:01:02;;;;;;;1999.90;999.90;;;26.00;96.00;;;;;;5057128;28;20049;-79
2022/05/19 12:03:46;;;;;;;1999.90;999.90;;;25.60;95.00;;;;;;5047234;28;20051;-77
2022/05/19 12:06:12;;;;;;;1999.90;999.90;;;25.30;96.10;;;;;;5060406;28;20051;-78
2022/05/19 12:09:16;;;;;;;1999.90;999.90;;;25.10;96.30;;;;;;5069948;28;20128;-77
2022/05/19 12:11:45;;;;;;;1999.90;999.90;;;25.00;97.70;;;;;;5064334;28;20109;-77
2022/05/19 12:14:11;;;;;;;1999.90;999.90;;;24.90;98.20;;;;;;5056269;28;20122;-78
2022/05/19 12:16:45;;;;;;;1999.90;999.90;;;24.70;98.70;;;;;;5056598;28;20453;-78
2022/05/19 12:19:28;;;;;;;1999.90;999.90;;;24.70;98.10;;;;;;5073037;28;20043;-77
2022/05/19 12:21:55;;;;;;;1999.90;999.90;;;24.50;98.30;;;;;;5065500;28;20044;-77
2022/05/19 12:24:36;;;;;;;1999.90;999.90;;;24.30;98.40;;;;;;5065289;28;20049;-77
2022/05/19 12:27:19;;;;;;;1999.90;999.90;;;24.20;98.70;;;;;;5053768;28;20413;-77
2022/05/19 12:31:56;;;;;;;1999.90;999.90;;;24.00;98.90;;;;;;5050367;28;20076;-77
2022/05/19 12:33:15;;;;;;;1999.90;999.90;;;23.90;99.40;;;;;;5052041;28;20142;-77
2022/05/19 12:35:43;;;;;;;1999.90;999.90;;;23.70;99.90;;;;;;5052427;28;20049;-77
2022/05/19 12:38:29;;;;;;;1999.90;999.90;;;23.60;99.90;;;;;;5031343;28;20048;-77
2022/05/19 12:40:57;;;;;;;1999.90;999.90;;;23.50;99.90;;;;;;5048651;28;20048;-76
2022/05/19 12:43:24;;;;;;;1999.90;999.90;;;23.30;99.90;;;;;;5044118;28;20049;-78
2022/05/19 12:45:56;;;;;;;1999.90;999.90;;;23.30;99.90;;;;;;5032101;28;20059;-77